createdAt,value
2018-09-25T00:01:19.648Z,55.24
2018-09-25T00:03:53.283Z,56.06
2018-09-25T00:06:27.239Z,55.62
2018-09-25T00:09:01.099Z,55.58
2018-09-25T00:11:34.834Z,55.87
2018-09-25T00:14:08.677Z,55.93
2018-09-25T00:16:42.565Z,55.27
2018-09-25T00:19:16.466Z,55.50
2018-09-25T00:21:50.335Z,55.67
2018-09-25T00:24:24.172Z,55.96
2018-09-25T00:26:58.054Z,55.97
2018-09-25T00:29:31.883Z,56.16
2018-09-25T00:32:05.717Z,56.19
2018-09-25T00:34:39.624Z,55.81
2018-09-25T00:37:13.531Z,55.67
2018-09-25T00:39:47.415Z,55.41
2018-09-25T00:42:21.295Z,56.10
2018-09-25T00:44:55.087Z,56.58
2018-09-25T00:47:29.025Z,56.73
2018-09-25T00:50:03.240Z,56.61
2018-09-25T00:52:37.120Z,56.91
2018-09-25T00:55:10.948Z,56.83
2018-09-25T00:57:44.839Z,56.44
2018-09-25T01:00:18.640Z,56.53
2018-09-25T01:02:52.415Z,57.14
2018-09-25T01:05:26.222Z,57.12
2018-09-25T01:08:00.116Z,57.16
2018-09-25T01:10:34.126Z,56.36
2018-09-25T01:13:08.207Z,56.68
2018-09-25T01:15:41.827Z,55.93
2018-09-25T01:18:15.563Z,56.12
2018-09-25T01:20:49.369Z,56.49
2018-09-25T01:23:23.835Z,57.28
2018-09-25T01:25:57.700Z,57.06
2018-09-25T01:28:31.398Z,57.31
2018-09-25T01:31:05.212Z,57.44
2018-09-25T01:33:39.103Z,57.60
2018-09-25T01:36:12.892Z,57.23
2018-09-25T01:38:46.660Z,57.23
2018-09-25T01:41:20.399Z,57.40
2018-09-25T01:43:54.311Z,57.37
2018-09-25T01:46:28.132Z,57.65
2018-09-25T01:49:01.930Z,57.53
2018-09-25T01:51:35.635Z,57.73
2018-09-25T01:54:09.544Z,58.38
2018-09-25T01:56:43.392Z,57.28
2018-09-25T01:59:17.336Z,57.82
2018-09-25T02:01:51.027Z,57.75
2018-09-25T02:04:24.726Z,58.06
2018-09-25T02:06:58.547Z,57.99
2018-09-25T02:09:32.387Z,57.74
2018-09-25T02:12:06.067Z,57.72
2018-09-25T02:14:39.924Z,57.88
2018-09-25T02:17:13.575Z,58.15
2018-09-25T02:19:47.328Z,58.23
2018-09-25T02:22:21.095Z,58.32
2018-09-25T02:24:54.833Z,58.04
2018-09-25T02:27:28.656Z,58.82
2018-09-25T02:30:02.532Z,58.46
2018-09-25T02:32:36.275Z,58.34
2018-09-25T02:35:10.459Z,58.40
2018-09-25T02:37:44.255Z,58.99
2018-09-25T02:40:18.224Z,58.78
2018-09-25T02:42:52.176Z,59.45
2018-09-25T02:45:25.959Z,59.92
2018-09-25T02:47:59.644Z,59.47
2018-09-25T02:50:33.383Z,59.62
2018-09-25T02:53:07.315Z,59.87
2018-09-25T02:55:41.108Z,59.32
2018-09-25T02:58:14.839Z,59.05
2018-09-25T03:00:48.561Z,59.44
2018-09-25T03:03:22.427Z,59.67
2018-09-25T03:05:56.485Z,59.39
2018-09-25T03:08:30.231Z,60.03
2018-09-25T03:11:04.079Z,59.31
2018-09-25T03:13:37.795Z,59.57
2018-09-25T03:16:11.500Z,59.19
2018-09-25T03:18:45.275Z,59.53
2018-09-25T03:21:19.095Z,59.55
2018-09-25T03:23:52.876Z,59.52
2018-09-25T03:26:27.000Z,59.56
2018-09-25T03:29:00.672Z,59.30
2018-09-25T03:31:34.689Z,59.08
2018-09-25T03:34:08.530Z,59.12
2018-09-25T03:36:42.396Z,59.20
2018-09-25T03:39:16.180Z,59.02
2018-09-25T03:41:50.468Z,59.09
2018-09-25T03:44:24.219Z,59.25
2018-09-25T03:46:58.093Z,59.30
2018-09-25T03:49:32.779Z,59.24
2018-09-25T03:52:06.588Z,59.18
2018-09-25T03:54:40.288Z,58.96
2018-09-25T03:57:14.420Z,59.37
2018-09-25T03:59:48.275Z,59.31
2018-09-25T04:02:22.099Z,59.55
2018-09-25T04:04:55.898Z,58.95
2018-09-25T04:07:29.858Z,59.05
2018-09-25T04:10:03.464Z,59.25
2018-09-25T04:12:37.267Z,58.69
2018-09-25T04:15:11.063Z,59.00
2018-09-25T04:17:45.004Z,58.97
2018-09-25T04:20:18.733Z,58.81
2018-09-25T04:22:52.415Z,58.48
2018-09-25T04:25:26.306Z,58.13
2018-09-25T04:28:00.338Z,58.42
2018-09-25T04:30:34.431Z,58.79
2018-09-25T04:33:08.263Z,58.67
2018-09-25T04:35:42.432Z,58.81
2018-09-25T04:38:16.212Z,58.70
2018-09-25T04:40:49.943Z,58.67
2018-09-25T04:43:23.673Z,59.37
2018-09-25T04:45:57.445Z,59.07
2018-09-25T04:48:31.263Z,59.22
2018-09-25T04:51:05.085Z,58.91
2018-09-25T04:53:38.836Z,58.85
2018-09-25T04:56:12.616Z,59.09
2018-09-25T04:58:46.364Z,58.46
2018-09-25T05:01:20.150Z,58.89
2018-09-25T05:03:53.991Z,58.65
2018-09-25T05:06:27.907Z,59.21
2018-09-25T05:09:01.740Z,58.90
2018-09-25T05:11:35.592Z,58.61
2018-09-25T05:14:09.454Z,58.55
2018-09-25T05:16:43.344Z,58.69
2018-09-25T05:19:17.148Z,59.31
2018-09-25T05:21:50.976Z,59.41
2018-09-25T05:24:24.832Z,58.98
2018-09-25T05:26:58.560Z,59.11
2018-09-25T05:29:32.284Z,58.75
2018-09-25T05:32:05.943Z,59.23
2018-09-25T05:34:39.925Z,59.21
2018-09-25T05:37:13.800Z,58.98
2018-09-25T05:39:47.532Z,59.10
2018-09-25T05:42:21.282Z,59.48
2018-09-25T05:44:55.020Z,58.83
2018-09-25T05:47:28.876Z,59.44
2018-09-25T05:50:02.763Z,59.57
2018-09-25T05:52:36.512Z,59.18
2018-09-25T05:55:10.351Z,58.51
2018-09-25T05:57:44.136Z,58.50
2018-09-25T06:00:17.831Z,57.62
2018-09-25T06:02:51.591Z,57.05
2018-09-25T06:05:25.664Z,56.81
2018-09-25T06:07:59.406Z,56.41
2018-09-25T06:10:33.208Z,55.80
2018-09-25T06:13:07.079Z,55.31
2018-09-25T06:15:41.090Z,54.53
2018-09-25T06:18:14.943Z,54.45
2018-09-25T06:20:49.004Z,53.92
2018-09-25T06:23:22.856Z,53.45
2018-09-25T06:25:56.689Z,53.42
2018-09-25T06:28:30.509Z,53.02
2018-09-25T06:31:04.483Z,52.59
2018-09-25T06:33:38.297Z,52.98
2018-09-25T06:36:12.155Z,52.70
2018-09-25T06:38:45.873Z,52.30
2018-09-25T06:41:19.699Z,51.83
2018-09-25T06:43:53.484Z,51.88
2018-09-25T06:46:27.212Z,51.29
2018-09-25T06:49:01.075Z,50.69
2018-09-25T06:51:34.924Z,49.72
2018-09-25T06:54:08.758Z,50.16
2018-09-25T06:56:42.695Z,50.07
2018-09-25T06:59:16.540Z,50.22
2018-09-25T07:01:50.348Z,50.42
2018-09-25T07:04:24.256Z,49.94
2018-09-25T07:06:58.139Z,50.09
2018-09-25T07:09:32.003Z,49.31
2018-09-25T07:12:05.976Z,48.84
2018-09-25T07:14:39.831Z,48.27
2018-09-25T07:17:13.612Z,47.65
2018-09-25T07:19:47.380Z,47.19
2018-09-25T07:22:21.404Z,45.93
2018-09-25T07:24:55.336Z,45.42
2018-09-25T07:27:29.151Z,44.76
2018-09-25T07:30:03.064Z,42.70
2018-09-25T07:32:36.948Z,42.44
2018-09-25T07:35:11.089Z,42.60
2018-09-25T07:37:45.356Z,43.19
2018-09-25T07:40:19.180Z,43.39
2018-09-25T07:42:52.853Z,44.70
2018-09-25T07:45:26.788Z,44.52
2018-09-25T07:48:00.657Z,43.60
2018-09-25T07:50:34.387Z,42.67
2018-09-25T07:53:08.604Z,42.44
2018-09-25T07:55:42.470Z,42.62
2018-09-25T07:58:16.273Z,41.56
2018-09-25T08:00:50.004Z,42.15
2018-09-25T08:03:23.821Z,41.14
2018-09-25T08:05:57.648Z,40.11
2018-09-25T08:08:31.503Z,40.50
2018-09-25T08:11:05.380Z,39.62
2018-09-25T08:13:39.235Z,39.17
2018-09-25T08:16:13.187Z,39.17
2018-09-25T08:18:47.068Z,39.47
2018-09-25T08:21:20.944Z,38.24
2018-09-25T08:23:54.797Z,38.87
2018-09-25T08:26:28.702Z,39.88
2018-09-25T08:29:02.432Z,38.06
2018-09-25T08:31:36.264Z,37.45
2018-09-25T08:34:10.099Z,36.14
2018-09-25T08:36:43.976Z,35.49
2018-09-25T08:39:17.756Z,36.03
2018-09-25T08:41:51.679Z,36.34
2018-09-25T08:44:25.633Z,35.73
2018-09-25T08:46:59.479Z,35.42
2018-09-25T08:49:33.679Z,34.79
2018-09-25T08:52:07.371Z,36.01
2018-09-25T08:54:41.115Z,35.90
2018-09-25T08:57:15.008Z,34.57
2018-09-25T08:59:48.764Z,34.17
2018-09-25T09:02:22.743Z,33.65
2018-09-25T09:04:56.545Z,34.38
2018-09-25T09:07:30.234Z,33.68
2018-09-25T09:10:03.899Z,33.48
2018-09-25T09:12:37.597Z,33.25
2018-09-25T09:15:11.522Z,31.75
2018-09-25T09:17:45.358Z,31.03
2018-09-25T09:20:19.211Z,30.72
2018-09-25T09:22:53.080Z,28.71
2018-09-25T09:25:26.800Z,30.25
2018-09-25T09:28:00.686Z,28.55
2018-09-25T09:30:34.396Z,28.64
2018-09-25T09:33:08.159Z,28.13
2018-09-25T09:35:42.088Z,27.94
2018-09-25T09:38:15.960Z,27.55
2018-09-25T09:40:49.971Z,27.47
2018-09-25T09:43:23.588Z,25.60
2018-09-25T09:45:57.542Z,25.34
2018-09-25T09:48:31.470Z,23.87
2018-09-25T09:51:05.247Z,24.14
2018-09-25T09:53:38.928Z,22.11
2018-09-25T09:56:12.990Z,21.83
2018-09-25T09:58:46.799Z,20.81
2018-09-25T10:01:20.612Z,21.03
2018-09-25T10:03:54.408Z,21.80
2018-09-25T10:06:28.116Z,21.14
2018-09-25T10:09:01.994Z,19.63
2018-09-25T10:11:35.799Z,20.34
2018-09-25T10:14:09.735Z,20.05
2018-09-25T10:16:43.584Z,18.92
2018-09-25T10:19:17.353Z,19.46
2018-09-25T10:21:51.155Z,19.30
2018-09-25T10:24:24.912Z,20.69
2018-09-25T10:26:58.749Z,19.95
2018-09-25T10:29:32.503Z,19.78
2018-09-25T10:32:06.328Z,19.30
2018-09-25T10:34:39.916Z,20.01
2018-09-25T10:37:13.644Z,19.99
2018-09-25T10:39:47.599Z,20.37
2018-09-25T10:42:21.720Z,20.57
2018-09-25T10:44:56.516Z,21.51
2018-09-25T10:47:30.452Z,21.06
2018-09-25T10:50:04.331Z,21.12
2018-09-25T10:52:38.212Z,21.25
2018-09-25T10:55:11.876Z,21.33
2018-09-25T10:57:45.842Z,22.23
2018-09-25T11:00:19.719Z,22.69
2018-09-25T11:02:53.537Z,23.19
2018-09-25T11:05:27.351Z,24.41
2018-09-25T11:08:01.011Z,24.42
2018-09-25T11:10:34.917Z,24.97
2018-09-25T11:13:08.747Z,24.45
2018-09-25T11:15:42.599Z,22.43
2018-09-25T11:18:16.620Z,20.07
2018-09-25T11:20:50.288Z,19.02
2018-09-25T11:23:23.997Z,16.77
2018-09-25T11:25:57.923Z,16.53
2018-09-25T11:28:31.913Z,15.93
2018-09-25T11:31:05.740Z,14.11
2018-09-25T11:33:39.548Z,14.21
2018-09-25T11:36:13.275Z,14.25
2018-09-25T11:38:47.568Z,12.50
2018-09-25T11:41:21.379Z,12.92
2018-09-25T11:43:55.284Z,12.09
2018-09-25T11:46:28.971Z,11.30
2018-09-25T11:49:02.792Z,10.18
2018-09-25T11:51:36.581Z,10.91
2018-09-25T11:54:10.424Z,10.84
2018-09-25T11:56:44.220Z,10.35
2018-09-25T11:59:18.080Z,13.21
2018-09-25T12:01:51.881Z,14.85
2018-09-25T12:04:25.665Z,16.52
2018-09-25T12:06:59.467Z,19.64
2018-09-25T12:09:33.326Z,21.10
2018-09-25T12:12:07.177Z,22.62
2018-09-25T12:14:40.982Z,23.90
2018-09-25T12:17:14.676Z,25.49
2018-09-25T12:19:48.460Z,24.68
2018-09-25T12:22:22.283Z,25.00
2018-09-25T12:24:56.311Z,25.85
2018-09-25T12:27:30.120Z,25.92
2018-09-25T12:30:03.892Z,25.39
2018-09-25T12:32:37.862Z,26.01
2018-09-25T12:35:12.237Z,28.01
2018-09-25T12:37:46.040Z,27.45
2018-09-25T12:40:20.104Z,27.58
2018-09-25T12:42:53.885Z,28.09
2018-09-25T12:45:27.771Z,27.04
2018-09-25T12:48:01.509Z,28.29
2018-09-25T12:50:35.407Z,26.96
2018-09-25T12:53:09.190Z,26.88
2018-09-25T12:55:43.008Z,27.18
2018-09-25T12:58:16.810Z,27.05
2018-09-25T13:00:51.031Z,27.90
2018-09-25T13:03:24.808Z,27.75
2018-09-25T13:05:58.629Z,27.21
2018-09-25T13:08:32.292Z,28.20
2018-09-25T13:11:06.447Z,27.89
2018-09-25T13:13:40.277Z,28.33
2018-09-25T13:16:14.139Z,27.98
2018-09-25T13:18:48.103Z,27.64
2018-09-25T13:21:22.418Z,27.68
2018-09-25T13:23:56.286Z,28.20
2018-09-25T13:26:30.387Z,28.51
2018-09-25T13:29:04.224Z,29.05
2018-09-25T13:31:38.239Z,28.67
2018-09-25T13:34:12.155Z,28.94
2018-09-25T13:36:45.999Z,28.58
2018-09-25T13:39:19.745Z,28.84
2018-09-25T13:41:53.560Z,28.77
2018-09-25T13:44:27.356Z,28.46
2018-09-25T13:47:01.084Z,28.11
2018-09-25T13:49:34.879Z,28.34
2018-09-25T13:52:09.117Z,28.15
2018-09-25T13:54:42.923Z,29.08
2018-09-25T13:57:16.755Z,28.56
2018-09-25T13:59:50.371Z,28.59
2018-09-25T14:02:24.204Z,28.98
2018-09-25T14:04:58.063Z,28.83
2018-09-25T14:07:31.850Z,28.63
2018-09-25T14:10:05.612Z,29.14
2018-09-25T14:12:39.403Z,28.86
2018-09-25T14:15:13.130Z,28.75
2018-09-25T14:17:46.865Z,28.52
2018-09-25T14:20:20.660Z,28.35
2018-09-25T14:22:54.516Z,27.96
2018-09-25T14:25:28.178Z,28.82
2018-09-25T14:28:01.924Z,28.65
2018-09-25T14:30:35.583Z,29.30
2018-09-25T14:33:09.387Z,28.17
2018-09-25T14:35:43.575Z,29.20
2018-09-25T14:38:17.428Z,29.03
2018-09-25T14:40:51.148Z,29.08
2018-09-25T14:43:25.007Z,29.31
2018-09-25T14:45:58.718Z,29.00
2018-09-25T14:48:32.670Z,28.87
2018-09-25T14:51:06.677Z,28.63
2018-09-25T14:53:40.986Z,29.49
2018-09-25T14:56:14.850Z,28.43
2018-09-25T14:58:48.967Z,28.93
2018-09-25T15:01:22.814Z,29.01
2018-09-25T15:03:56.588Z,28.74
2018-09-25T15:06:30.359Z,28.97
2018-09-25T15:09:04.122Z,29.04
2018-09-25T15:11:37.972Z,29.07
2018-09-25T15:14:12.241Z,29.05
2018-09-25T15:16:45.927Z,28.84
2018-09-25T15:19:20.071Z,29.02
2018-09-25T15:21:54.061Z,29.29
2018-09-25T15:24:27.740Z,28.86
2018-09-25T15:27:01.519Z,29.74
2018-09-25T15:29:35.387Z,28.89
2018-09-25T15:32:09.544Z,28.83
2018-09-25T15:34:43.431Z,28.92
2018-09-25T15:37:17.316Z,29.04
2018-09-25T15:39:51.225Z,28.06
2018-09-25T15:42:25.140Z,28.76
2018-09-25T15:44:59.007Z,28.55
2018-09-25T15:47:32.859Z,28.90
2018-09-25T15:50:07.076Z,29.03
2018-09-25T15:52:40.872Z,28.33
2018-09-25T15:55:14.776Z,28.81
2018-09-25T15:57:48.756Z,28.31
2018-09-25T16:00:22.619Z,29.32
2018-09-25T16:02:56.518Z,29.74
2018-09-25T16:05:30.635Z,29.57
2018-09-25T16:08:04.533Z,29.63
2018-09-25T16:10:38.452Z,29.52
2018-09-25T16:13:12.863Z,29.15
2018-09-25T16:15:46.786Z,28.65
2018-09-25T16:18:20.695Z,29.01
2018-09-25T16:20:54.464Z,28.31
2018-09-25T16:23:28.394Z,28.75
2018-09-25T16:26:02.209Z,28.51
2018-09-25T16:28:35.874Z,28.79
2018-09-25T16:31:09.734Z,28.86
2018-09-25T16:33:43.593Z,28.29
2018-09-25T16:36:17.328Z,28.46
2018-09-25T16:38:51.225Z,29.25
2018-09-25T16:41:25.060Z,29.72
2018-09-25T16:43:58.938Z,29.91
2018-09-25T16:46:32.780Z,29.07
2018-09-25T16:49:13.636Z,29.37
2018-09-25T16:51:47.563Z,29.62
2018-09-25T16:54:21.339Z,29.32
2018-09-25T16:56:55.454Z,29.65
2018-09-25T16:59:29.412Z,29.71
2018-09-25T17:02:03.689Z,30.81
2018-09-25T17:04:37.541Z,30.46
2018-09-25T17:07:11.579Z,30.49
2018-09-25T17:09:45.387Z,30.32
2018-09-25T17:12:19.268Z,29.93
2018-09-25T17:14:52.923Z,30.72
2018-09-25T17:17:26.647Z,31.54
2018-09-25T17:20:00.332Z,31.18
2018-09-25T17:22:34.073Z,31.35
2018-09-25T17:25:07.803Z,31.07
2018-09-25T17:27:41.958Z,31.46
2018-09-25T17:30:15.735Z,31.22
2018-09-25T17:32:49.619Z,31.78
2018-09-25T17:35:23.443Z,32.00
2018-09-25T17:37:57.717Z,32.02
2018-09-25T17:40:31.471Z,32.46
2018-09-25T17:43:05.763Z,32.03
2018-09-25T17:45:39.727Z,32.03
2018-09-25T17:48:13.455Z,32.43
2018-09-25T17:50:47.640Z,32.89
2018-09-25T17:53:21.789Z,32.74
2018-09-25T17:55:55.971Z,32.78
2018-09-25T17:58:30.339Z,32.49
2018-09-25T18:01:04.291Z,32.93
2018-09-25T18:03:38.185Z,32.98
2018-09-25T18:06:12.015Z,32.86
2018-09-25T18:08:46.212Z,32.79
2018-09-25T18:11:20.069Z,33.31
2018-09-25T18:13:54.011Z,33.25
2018-09-25T18:16:27.859Z,33.59
2018-09-25T18:19:01.660Z,33.43
2018-09-25T18:21:35.784Z,33.55
2018-09-25T18:24:10.361Z,33.72
2018-09-25T18:26:44.128Z,34.61
2018-09-25T18:29:18.044Z,34.28
2018-09-25T18:31:51.789Z,34.20
2018-09-25T18:34:25.804Z,34.40
2018-09-25T18:36:59.639Z,34.39
2018-09-25T18:39:33.520Z,34.36
2018-09-25T18:42:07.432Z,34.31
2018-09-25T18:44:41.255Z,34.27
2018-09-25T18:47:15.007Z,34.46
2018-09-25T18:49:48.801Z,34.18
2018-09-25T18:52:22.620Z,34.31
2018-09-25T18:54:56.763Z,34.52
2018-09-25T18:57:30.704Z,35.03
2018-09-25T19:00:05.044Z,35.99
2018-09-25T19:02:38.846Z,36.57
2018-09-25T19:05:13.346Z,36.87
2018-09-25T19:07:47.167Z,36.23
2018-09-25T19:10:21.096Z,36.80
2018-09-25T19:12:54.828Z,37.41
2018-09-25T19:15:29.057Z,37.64
2018-09-25T19:18:02.941Z,37.68
2018-09-25T19:20:36.886Z,38.02
2018-09-25T19:23:10.648Z,37.58
2018-09-25T19:25:44.561Z,38.61
2018-09-25T19:28:18.496Z,38.37
2018-09-25T19:30:52.578Z,38.83
2018-09-25T19:33:26.460Z,38.30
2018-09-25T19:36:00.709Z,37.23
2018-09-25T19:38:34.596Z,37.45
2018-09-25T19:41:08.401Z,37.29
2018-09-25T19:43:42.282Z,37.89
2018-09-25T19:46:16.108Z,37.44
2018-09-25T19:48:49.838Z,37.81
2018-09-25T19:51:23.737Z,38.47
2018-09-25T19:53:57.547Z,38.18
2018-09-25T19:56:31.778Z,38.59
2018-09-25T19:59:06.220Z,38.87
2018-09-25T20:01:40.156Z,38.80
2018-09-25T20:04:13.912Z,39.63
2018-09-25T20:06:47.668Z,39.04
2018-09-25T20:09:21.565Z,39.00
2018-09-25T20:11:55.416Z,39.12
2018-09-25T20:14:29.216Z,39.96
2018-09-25T20:17:03.220Z,39.68
2018-09-25T20:19:37.088Z,40.14
2018-09-25T20:22:13.184Z,40.31
2018-09-25T20:24:47.115Z,40.44
2018-09-25T20:27:21.134Z,40.46
2018-09-25T20:29:54.704Z,40.92
2018-09-25T20:32:28.564Z,40.90
2018-09-25T20:35:02.439Z,40.66
2018-09-25T20:37:36.158Z,40.34
2018-09-25T20:40:10.388Z,40.85
2018-09-25T20:42:44.544Z,40.91
2018-09-25T20:45:18.712Z,41.04
2018-09-25T20:47:52.681Z,40.85
2018-09-25T20:50:26.472Z,41.54
2018-09-25T20:53:00.315Z,40.70
2018-09-25T20:55:34.219Z,40.20
2018-09-25T20:58:08.058Z,39.30
2018-09-25T21:00:41.925Z,39.66
2018-09-25T21:03:15.829Z,38.72
2018-09-25T21:05:49.511Z,39.09
2018-09-25T21:08:23.472Z,39.21
2018-09-25T21:10:57.272Z,39.20
2018-09-25T21:13:30.997Z,39.23
2018-09-25T21:16:04.611Z,39.26
2018-09-25T21:18:38.575Z,38.88
2018-09-25T21:21:12.624Z,39.01
2018-09-25T21:23:46.904Z,38.90
2018-09-25T21:26:20.648Z,40.24
2018-09-25T21:28:54.881Z,40.07
2018-09-25T21:31:28.832Z,40.99
2018-09-25T21:34:02.646Z,40.89
2018-09-25T21:36:36.564Z,41.27
2018-09-25T21:39:13.133Z,41.94
2018-09-25T21:41:47.399Z,42.49
2018-09-25T21:44:21.291Z,42.83
2018-09-25T21:46:55.152Z,42.69
2018-09-25T21:49:28.932Z,42.05
2018-09-25T21:52:02.597Z,42.28
2018-09-25T21:54:36.799Z,41.93
2018-09-25T21:57:10.866Z,42.03
2018-09-25T21:59:44.544Z,43.46
2018-09-25T22:02:18.478Z,43.86
2018-09-25T22:04:52.318Z,43.71
2018-09-25T22:07:26.116Z,43.74
2018-09-25T22:10:00.000Z,43.82
2018-09-25T22:12:33.922Z,43.98
2018-09-25T22:15:07.884Z,44.96
2018-09-25T22:17:41.776Z,44.44
2018-09-25T22:20:15.890Z,45.01
2018-09-25T22:22:49.815Z,45.02
2018-09-25T22:25:25.071Z,44.67
2018-09-25T22:27:58.868Z,45.35
2018-09-25T22:30:33.770Z,45.36
2018-09-25T22:33:07.575Z,45.09
2018-09-25T22:35:41.628Z,45.69
2018-09-25T22:38:15.496Z,45.43
2018-09-25T22:40:49.583Z,46.33
2018-09-25T22:43:23.440Z,46.32
2018-09-25T22:45:57.631Z,46.03
2018-09-25T22:48:31.438Z,46.46
2018-09-25T22:51:05.361Z,46.70
2018-09-25T22:53:39.063Z,46.72
2018-09-25T22:56:13.862Z,47.19
2018-09-25T22:58:48.684Z,47.26
2018-09-25T23:01:22.647Z,47.20
2018-09-25T23:03:56.532Z,48.12
2018-09-25T23:06:30.228Z,48.55
2018-09-25T23:09:04.035Z,48.41
2018-09-25T23:11:37.973Z,49.05
2018-09-25T23:14:12.015Z,49.24
2018-09-25T23:16:46.871Z,49.24
2018-09-25T23:19:20.656Z,48.76
2018-09-25T23:21:54.672Z,48.56
2018-09-25T23:24:28.560Z,49.27
2018-09-25T23:27:02.467Z,49.00
2018-09-25T23:29:36.453Z,49.02
2018-09-25T23:32:10.276Z,49.51
2018-09-25T23:34:44.599Z,49.20
2018-09-25T23:37:18.471Z,49.31
2018-09-25T23:40:10.240Z,49.46
2018-09-25T23:42:44.169Z,49.86
2018-09-25T23:45:21.905Z,50.25
2018-09-25T23:47:56.865Z,49.38
2018-09-25T23:50:32.931Z,49.07
2018-09-25T23:53:35.048Z,50.08
2018-09-25T23:56:08.861Z,49.99
2018-09-25T23:58:42.588Z,50.70
